Time;durP1;ratioP1;P1;durP2;ratioP2;P2;SDS_P1;SDS_P2;PMS_P1;PMS_P2;Temp;Humidity;BMP_temperature;BMP_pressure;BME280_temperature;BME280_humidity;BME280_pressure;Samples;Min_cycle;Max_cycle;Signal;HPM_P1;HPM_P2
2022/01/13 00:02:20;;;;;;;87.20;32.60;;;4.00;99.90;;;;;;5113645;28;20532;-74
2022/01/13 00:04:47;;;;;;;96.90;32.23;;;4.10;99.90;;;;;;5113783;28;20044;-73
2022/01/13 00:07:13;;;;;;;93.77;33.10;;;4.00;99.90;;;;;;5112397;28;20027;-73
2022/01/13 00:09:39;;;;;;;97.83;34.87;;;4.10;99.90;;;;;;5116647;28;20027;-74
2022/01/13 00:12:08;;;;;;;107.67;35.27;;;4.00;99.90;;;;;;5116332;28;20517;-73
2022/01/13 00:17:27;;;;;;;98.10;32.27;;;4.00;99.90;;;;;;5117431;28;20028;-74
2022/01/13 00:20:10;;;;;;;87.10;30.13;;;3.90;99.90;;;;;;5117255;28;20032;-73
2022/01/13 00:25:04;;;;;;;99.27;33.87;;;3.80;99.90;;;;;;5116452;28;20042;-74
2022/01/13 00:27:30;;;;;;;94.13;31.33;;;3.90;99.90;;;;;;5099220;28;20027;-73
2022/01/13 00:29:59;;;;;;;93.97;30.10;;;3.90;99.90;;;;;;5115768;28;20475;-73
2022/01/13 00:32:28;;;;;;;100.53;33.63;;;3.90;99.90;;;;;;5116918;28;20028;-73
2022/01/13 00:34:54;;;;;;;98.33;32.03;;;3.80;99.90;;;;;;5115710;28;20028;-74
2022/01/13 00:37:19;;;;;;;89.77;30.50;;;3.90;99.90;;;;;;5116892;28;20066;-74
2022/01/13 00:39:45;;;;;;;88.70;32.07;;;3.90;99.90;;;;;;5115956;28;20050;-74
2022/01/13 00:42:11;;;;;;;95.67;29.03;;;3.90;99.90;;;;;;5098663;28;20479;-73
2022/01/13 00:44:38;;;;;;;105.67;33.23;;;3.90;99.90;;;;;;5115427;28;20494;-73
2022/01/13 00:47:07;;;;;;;84.73;31.43;;;3.90;99.90;;;;;;5098798;28;20032;-74
2022/01/13 00:49:33;;;;;;;102.87;33.50;;;3.90;99.90;;;;;;5115278;28;20433;-73
2022/01/13 00:51:59;;;;;;;94.20;31.63;;;3.90;99.90;;;;;;5116628;28;20024;-73
2022/01/13 00:54:25;;;;;;;91.53;32.17;;;3.90;99.90;;;;;;5116613;28;20406;-74
2022/01/13 00:56:51;;;;;;;91.67;30.93;;;3.80;99.90;;;;;;5116430;28;20032;-74
2022/01/13 00:59:18;;;;;;;96.03;31.33;;;3.90;99.90;;;;;;5115065;28;20048;-73
2022/01/13 01:01:47;;;;;;;94.50;32.47;;;3.80;99.90;;;;;;5115105;28;20433;-74
2022/01/13 01:04:13;;;;;;;103.40;34.40;;;3.90;99.90;;;;;;5115185;28;20035;-74
2022/01/13 01:06:40;;;;;;;106.17;31.40;;;3.80;99.90;;;;;;5115357;28;20035;-74
2022/01/13 01:09:39;;;;;;;103.23;32.70;;;3.90;99.90;;;;;;5115341;28;20031;-74
2022/01/13 01:11:56;;;;;;;97.37;32.70;;;3.80;99.90;;;;;;5115946;28;20023;-74
2022/01/13 01:14:23;;;;;;;105.07;31.57;;;3.80;99.90;;;;;;5098339;28;20035;-74
2022/01/13 01:16:48;;;;;;;102.70;31.17;;;3.80;99.90;;;;;;5114958;28;20028;-74
2022/01/13 01:19:15;;;;;;;97.83;31.47;;;3.80;99.90;;;;;;5116168;28;20043;-73
2022/01/13 01:27:00;;;;;;;97.03;31.73;;;3.80;99.90;;;;;;5115056;28;20372;-74
2022/01/13 01:29:37;;;;;;;94.43;31.10;;;3.80;99.90;;;;;;5114902;28;20023;-74
2022/01/13 01:32:08;;;;;;;93.93;30.37;;;3.80;99.90;;;;;;5099145;28;20031;-73
2022/01/13 01:37:18;;;;;;;105.33;30.37;;;3.80;99.90;;;;;;5114527;28;20031;-74
2022/01/13 01:39:46;;;;;;;93.73;31.07;;;3.80;99.90;;;;;;5115717;28;20121;-74
2022/01/13 01:42:12;;;;;;;100.13;30.70;;;3.80;99.90;;;;;;5115488;28;20039;-73
2022/01/13 01:44:42;;;;;;;79.73;26.67;;;3.80;99.90;;;;;;5114254;28;20376;-73
2022/01/13 01:47:14;;;;;;;82.77;26.70;;;3.80;99.90;;;;;;5114309;28;20468;-74
2022/01/13 01:49:43;;;;;;;92.13;29.00;;;3.80;99.90;;;;;;5115389;28;20028;-74
2022/01/13 01:52:11;;;;;;;104.40;29.03;;;3.70;99.90;;;;;;5098091;28;20032;-74
2022/01/13 01:54:37;;;;;;;87.57;28.33;;;3.80;99.90;;;;;;5115400;28;20038;-74
2022/01/13 01:57:04;;;;;;;84.70;27.40;;;3.80;99.90;;;;;;5115309;28;20024;-74
2022/01/13 01:59:32;;;;;;;98.13;29.00;;;3.80;99.90;;;;;;5115474;28;20070;-74
2022/01/13 02:01:59;;;;;;;83.23;26.93;;;3.80;99.90;;;;;;5114207;28;20028;-74
2022/01/13 02:04:26;;;;;;;79.03;26.73;;;3.80;99.90;;;;;;5114312;28;20059;-74
2022/01/13 02:06:59;;;;;;;83.50;26.73;;;3.80;99.90;;;;;;5096998;28;20028;-75
2022/01/13 02:09:25;;;;;;;82.67;27.17;;;3.80;99.90;;;;;;5115288;28;20099;-74
2022/01/13 02:11:55;;;;;;;86.63;28.27;;;3.80;99.90;;;;;;5115147;28;20060;-73
2022/01/13 02:17:00;;;;;;;85.07;26.27;;;3.80;99.90;;;;;;5115102;28;20032;-74
2022/01/13 02:19:26;;;;;;;86.18;26.02;;;3.80;99.90;;;;;;5113734;28;20028;-74
2022/01/13 02:21:53;;;;;;;76.13;26.50;;;3.80;99.90;;;;;;5114884;28;20030;-74
2022/01/13 02:24:18;;;;;;;73.33;24.73;;;3.80;99.90;;;;;;5114720;28;20028;-77
2022/01/13 02:26:44;;;;;;;84.10;27.27;;;3.80;99.90;;;;;;5115277;28;20398;-77
2022/01/13 02:29:10;;;;;;;84.53;25.70;;;3.80;99.90;;;;;;5096273;28;20024;-77
2022/01/13 02:31:36;;;;;;;73.90;26.73;;;3.80;99.90;;;;;;5112744;28;20437;-77
2022/01/13 02:34:02;;;;;;;72.63;23.67;;;3.80;99.90;;;;;;5113554;28;20033;-77
2022/01/13 02:36:30;;;;;;;78.17;25.90;;;3.80;99.90;;;;;;5114778;28;20107;-77
2022/01/13 02:38:57;;;;;;;65.97;24.33;;;3.80;99.90;;;;;;5114697;28;20023;-77
2022/01/13 02:41:24;;;;;;;73.03;23.93;;;3.80;99.90;;;;;;5114742;28;20027;-77
2022/01/13 02:43:52;;;;;;;64.00;22.00;;;3.80;99.90;;;;;;5114649;28;20027;-77
2022/01/13 02:49:08;;;;;;;68.53;23.20;;;3.80;99.90;;;;;;5114492;28;20383;-77
2022/01/13 02:51:34;;;;;;;70.40;23.10;;;3.80;99.90;;;;;;5114208;28;20078;-77
2022/01/13 02:54:00;;;;;;;63.67;22.13;;;3.80;99.90;;;;;;5113227;28;20035;-77
2022/01/13 02:56:27;;;;;;;64.77;22.77;;;3.80;99.90;;;;;;5114493;28;20378;-77
2022/01/13 02:58:53;;;;;;;62.00;23.33;;;3.90;99.90;;;;;;5096181;28;20069;-77
2022/01/13 03:01:19;;;;;;;62.33;21.70;;;3.80;99.90;;;;;;5113151;28;20383;-77
2022/01/13 03:03:45;;;;;;;59.63;21.93;;;3.80;99.90;;;;;;5114132;28;20425;-77
2022/01/13 03:06:13;;;;;;;52.00;19.97;;;3.80;99.90;;;;;;5096346;28;20024;-76
2022/01/13 03:08:42;;;;;;;51.70;19.37;;;3.80;99.90;;;;;;5114121;28;20019;-77
2022/01/13 03:11:09;;;;;;;49.53;19.50;;;3.80;99.90;;;;;;5112915;28;20070;-77
2022/01/13 03:13:34;;;;;;;62.27;20.33;;;3.90;99.90;;;;;;5113991;28;20023;-77
2022/01/13 03:16:08;;;;;;;57.13;20.77;;;3.90;99.90;;;;;;5114067;28;20404;-77
2022/01/13 03:18:35;;;;;;;60.30;16.92;;;3.90;99.90;;;;;;5112944;28;20392;-77
2022/01/13 03:21:00;;;;;;;47.80;18.20;;;3.90;99.90;;;;;;5114188;28;20022;-77
2022/01/13 03:23:26;;;;;;;64.40;19.53;;;4.00;99.90;;;;;;5112506;28;20031;-77
2022/01/13 03:25:53;;;;;;;62.87;21.07;;;3.90;99.90;;;;;;5114057;28;20028;-77
2022/01/13 03:28:29;;;;;;;58.63;20.57;;;3.90;99.90;;;;;;5095715;28;20015;-77
2022/01/13 03:30:55;;;;;;;67.60;20.17;;;3.90;99.90;;;;;;5112363;28;20043;-77
2022/01/13 03:33:21;;;;;;;51.87;17.57;;;3.90;99.90;;;;;;5112635;28;20456;-77
2022/01/13 03:35:47;;;;;;;52.60;18.80;;;3.90;99.90;;;;;;5112456;28;20035;-77
2022/01/13 03:38:13;;;;;;;58.70;20.37;;;3.90;99.90;;;;;;5113712;28;20019;-77
2022/01/13 03:40:39;;;;;;;53.47;18.53;;;3.90;99.90;;;;;;5113636;28;20035;-77
2022/01/13 03:43:06;;;;;;;53.47;19.80;;;3.90;99.90;;;;;;5115932;28;20563;-77
2022/01/13 03:45:32;;;;;;;57.17;20.20;;;3.90;99.90;;;;;;5117863;28;20080;-73
2022/01/13 03:48:02;;;;;;;63.43;21.83;;;3.90;99.90;;;;;;5116487;28;20058;-77
2022/01/13 03:50:28;;;;;;;63.93;22.00;;;3.90;99.90;;;;;;5116503;28;20012;-77
2022/01/13 03:53:02;;;;;;;58.37;21.30;;;3.90;99.90;;;;;;5116456;28;20062;-77
2022/01/13 03:55:40;;;;;;;67.73;22.23;;;3.80;99.90;;;;;;5117762;28;20024;-76
2022/01/13 03:58:43;;;;;;;67.03;21.17;;;3.80;99.90;;;;;;5116442;28;20164;-76
2022/01/13 04:01:39;;;;;;;64.00;22.60;;;3.80;99.90;;;;;;5116204;28;20061;-77
2022/01/13 04:04:04;;;;;;;60.57;22.73;;;3.80;99.90;;;;;;5116205;28;20170;-78
2022/01/13 04:06:37;;;;;;;60.03;21.73;;;3.80;99.90;;;;;;5115573;28;20436;-77
2022/01/13 04:09:28;;;;;;;73.73;22.77;;;3.70;99.90;;;;;;5117043;28;20361;-76
2022/01/13 04:11:53;;;;;;;62.30;20.07;;;3.70;99.90;;;;;;5075171;28;20047;-77
2022/01/13 04:14:29;;;;;;;72.27;21.00;;;3.70;99.90;;;;;;5117459;28;20027;-77
2022/01/13 04:16:55;;;;;;;50.13;20.13;;;3.70;99.90;;;;;;5117185;28;20031;-77
2022/01/13 04:19:21;;;;;;;62.70;22.53;;;3.70;99.90;;;;;;5099410;28;20031;-77
2022/01/13 04:21:47;;;;;;;67.07;22.33;;;3.70;99.90;;;;;;5099027;28;20405;-76
2022/01/13 04:24:13;;;;;;;79.43;22.90;;;3.70;99.90;;;;;;5115832;28;20039;-77
2022/01/13 04:26:43;;;;;;;70.90;21.67;;;3.70;99.90;;;;;;5117086;28;20086;-77
2022/01/13 04:31:36;;;;;;;66.23;23.80;;;3.60;99.90;;;;;;5117231;28;20028;-77
2022/01/13 04:34:01;;;;;;;75.07;22.60;;;3.70;99.90;;;;;;5116008;28;20070;-78
2022/01/13 04:36:27;;;;;;;52.57;21.27;;;3.70;99.90;;;;;;5098886;28;20059;-77
2022/01/13 04:38:53;;;;;;;77.37;23.23;;;3.60;99.90;;;;;;5115819;28;20080;-77
2022/01/13 04:41:29;;;;;;;79.93;23.40;;;3.60;99.90;;;;;;5116799;28;20119;-78
2022/01/13 04:43:55;;;;;;;70.37;22.37;;;3.60;99.90;;;;;;5115354;28;20059;-77
2022/01/13 04:46:21;;;;;;;69.07;22.03;;;3.60;99.90;;;;;;5116874;28;20070;-77
2022/01/13 04:48:46;;;;;;;74.23;22.23;;;3.50;99.90;;;;;;5098426;28;20085;-77
2022/01/13 04:51:12;;;;;;;76.67;21.40;;;3.60;99.90;;;;;;5116661;28;20059;-76
2022/01/13 04:53:38;;;;;;;66.47;21.97;;;3.60;99.90;;;;;;5116227;28;20066;-77
2022/01/13 04:56:10;;;;;;;57.37;19.83;;;3.60;99.90;;;;;;5115279;28;20111;-78
2022/01/13 04:58:36;;;;;;;65.93;19.83;;;3.60;99.90;;;;;;5115776;28;20518;-78
2022/01/13 05:01:01;;;;;;;73.03;22.03;;;3.50;99.90;;;;;;5116707;28;20049;-77
2022/01/13 05:03:27;;;;;;;77.07;21.97;;;3.60;99.90;;;;;;5116043;28;20196;-77
2022/01/13 05:05:52;;;;;;;63.87;21.10;;;3.50;99.90;;;;;;5098370;28;20035;-77
2022/01/13 05:08:18;;;;;;;55.80;21.37;;;3.50;99.90;;;;;;5116187;28;20046;-77
2022/01/13 05:10:43;;;;;;;57.83;21.03;;;3.50;99.90;;;;;;5114944;28;20059;-77
2022/01/13 05:13:11;;;;;;;75.17;23.10;;;3.50;99.90;;;;;;5116070;28;20032;-77
2022/01/13 05:15:40;;;;;;;65.97;20.77;;;3.50;99.90;;;;;;5081438;28;20500;-77
2022/01/13 05:18:19;;;;;;;56.30;20.60;;;3.50;99.90;;;;;;5114901;28;20031;-76
2022/01/13 05:20:56;;;;;;;72.70;20.67;;;3.50;99.90;;;;;;5116021;28;20054;-77
2022/01/13 05:23:21;;;;;;;64.17;20.20;;;3.50;99.90;;;;;;5114837;28;20066;-77
2022/01/13 05:25:47;;;;;;;69.80;22.37;;;3.50;99.90;;;;;;5114752;28;20055;-77
2022/01/13 05:28:13;;;;;;;62.73;19.23;;;3.50;99.90;;;;;;5115923;28;20028;-77
2022/01/13 05:30:39;;;;;;;56.00;18.43;;;3.40;99.90;;;;;;5115717;28;20036;-78
2022/01/13 05:33:05;;;;;;;56.00;18.60;;;3.40;99.90;;;;;;5116206;28;20034;-77
2022/01/13 05:35:31;;;;;;;60.17;18.90;;;3.40;99.90;;;;;;5114392;28;20395;-77
2022/01/13 05:37:57;;;;;;;52.30;17.50;;;3.50;99.90;;;;;;5116274;28;20066;-77
2022/01/13 05:40:23;;;;;;;60.97;19.93;;;3.40;99.90;;;;;;5114734;28;20449;-77
2022/01/13 05:42:49;;;;;;;65.50;20.33;;;3.40;99.90;;;;;;5115589;28;20028;-77
2022/01/13 05:45:17;;;;;;;61.13;22.03;;;3.40;99.90;;;;;;5115511;28;20076;-77
2022/01/13 05:47:44;;;;;;;53.40;17.93;;;3.50;99.90;;;;;;5114485;28;20046;-77
2022/01/13 05:50:11;;;;;;;66.07;19.27;;;3.60;99.90;;;;;;5115701;28;20039;-77
2022/01/13 05:52:37;;;;;;;55.77;20.03;;;3.40;99.90;;;;;;5115700;28;20016;-77
2022/01/13 05:55:04;;;;;;;56.20;19.23;;;3.40;99.90;;;;;;5114419;28;20049;-77
2022/01/13 05:57:30;;;;;;;51.67;18.57;;;3.40;99.90;;;;;;5114505;28;20491;-77
2022/01/13 05:59:56;;;;;;;44.63;17.77;;;3.40;99.90;;;;;;5114184;28;20032;-77
2022/01/13 06:02:21;;;;;;;65.57;20.30;;;3.40;99.90;;;;;;5113863;28;20104;-77
2022/01/13 06:04:47;;;;;;;48.87;19.27;;;3.40;99.90;;;;;;5115233;28;20036;-77
2022/01/13 06:07:13;;;;;;;66.23;20.27;;;3.40;99.90;;;;;;5113033;28;20428;-77
2022/01/13 06:09:38;;;;;;;58.57;18.73;;;3.40;99.90;;;;;;5113643;28;20031;-77
2022/01/13 06:12:05;;;;;;;57.63;19.33;;;3.40;99.90;;;;;;5113695;28;20063;-77
2022/01/13 06:14:31;;;;;;;49.23;16.97;;;3.40;99.90;;;;;;5114043;28;20062;-73
2022/01/13 06:16:57;;;;;;;51.97;18.77;;;3.40;99.90;;;;;;5114030;28;20031;-73
2022/01/13 06:19:23;;;;;;;62.50;17.87;;;3.40;99.90;;;;;;5114177;28;20053;-73
2022/01/13 06:21:49;;;;;;;61.13;19.63;;;3.40;99.90;;;;;;5114036;28;20369;-74
2022/01/13 06:24:15;;;;;;;51.23;17.67;;;3.40;99.90;;;;;;5096652;28;20028;-73
2022/01/13 06:26:41;;;;;;;55.47;18.07;;;3.40;99.90;;;;;;5115020;28;20162;-72
2022/01/13 06:29:06;;;;;;;49.83;17.90;;;3.40;99.90;;;;;;5113957;28;20055;-72
2022/01/13 06:31:32;;;;;;;54.80;19.47;;;3.40;99.90;;;;;;5113956;28;20059;-72
2022/01/13 06:33:58;;;;;;;43.27;17.90;;;3.40;99.90;;;;;;5114103;28;20035;-72
2022/01/13 06:36:23;;;;;;;44.50;17.53;;;3.40;99.90;;;;;;5114025;28;20023;-73
2022/01/13 06:38:50;;;;;;;57.13;17.77;;;3.30;99.90;;;;;;5112927;28;20035;-73
2022/01/13 06:41:16;;;;;;;60.80;18.67;;;3.30;99.90;;;;;;5112739;28;20379;-73
2022/01/13 06:43:42;;;;;;;52.63;17.37;;;3.30;99.90;;;;;;5103644;28;20031;-73
2022/01/13 06:46:07;;;;;;;52.53;16.07;;;3.30;99.90;;;;;;5105641;28;20031;-73
2022/01/13 06:48:33;;;;;;;40.67;15.10;;;3.30;99.90;;;;;;5107807;28;20119;-75
2022/01/13 06:50:59;;;;;;;46.73;16.80;;;3.30;99.90;;;;;;5102565;28;20035;-73
2022/01/13 06:53:25;;;;;;;54.63;18.50;;;3.30;99.90;;;;;;5096022;28;20093;-72
2022/01/13 06:55:51;;;;;;;58.50;19.10;;;3.30;99.90;;;;;;5104067;28;20031;-72
2022/01/13 06:58:17;;;;;;;54.90;18.90;;;3.30;99.90;;;;;;5091259;28;20148;-72
2022/01/13 07:00:43;;;;;;;52.63;17.67;;;3.30;99.90;;;;;;5101974;28;20484;-72
2022/01/13 07:03:09;;;;;;;43.37;17.03;;;3.30;99.90;;;;;;5100372;28;20104;-72
2022/01/13 07:05:35;;;;;;;43.67;17.03;;;3.30;99.90;;;;;;5102330;28;20032;-72
2022/01/13 07:08:02;;;;;;;40.07;17.23;;;3.30;99.90;;;;;;5106826;28;20027;-72
2022/01/13 07:10:28;;;;;;;47.07;17.80;;;3.30;99.90;;;;;;5095463;28;20032;-71
2022/01/13 07:12:53;;;;;;;48.43;18.57;;;3.30;99.90;;;;;;5092218;28;20032;-72
2022/01/13 07:15:19;;;;;;;48.03;17.67;;;3.30;99.90;;;;;;5074594;28;20028;-74
2022/01/13 07:17:45;;;;;;;59.93;16.83;;;3.40;99.90;;;;;;5092929;28;20024;-71
2022/01/13 07:20:11;;;;;;;69.13;20.37;;;3.40;99.90;;;;;;5092981;28;20195;-74
2022/01/13 07:22:38;;;;;;;50.53;17.53;;;3.40;99.90;;;;;;5075400;28;20038;-72
2022/01/13 07:25:06;;;;;;;48.83;17.23;;;3.40;99.90;;;;;;5093157;28;20028;-73
2022/01/13 07:27:31;;;;;;;50.63;18.93;;;3.40;99.90;;;;;;5093305;28;20035;-70
2022/01/13 07:29:57;;;;;;;55.97;19.07;;;3.40;99.90;;;;;;5093582;28;20024;-70
2022/01/13 07:32:22;;;;;;;50.13;18.50;;;3.40;99.90;;;;;;5093038;28;20028;-74
2022/01/13 07:34:49;;;;;;;53.17;18.77;;;3.40;99.90;;;;;;5092206;28;20028;-74
2022/01/13 07:37:15;;;;;;;68.80;19.33;;;3.40;99.90;;;;;;5099349;28;20548;-73
2022/01/13 07:39:41;;;;;;;45.57;17.23;;;3.40;99.90;;;;;;5113573;28;20052;-71
2022/01/13 07:42:07;;;;;;;46.43;15.87;;;3.40;99.90;;;;;;5111736;28;20369;-71
2022/01/13 07:44:32;;;;;;;49.43;16.83;;;3.40;99.90;;;;;;5092049;28;20024;-72
2022/01/13 07:47:00;;;;;;;36.20;14.37;;;3.40;99.90;;;;;;5093152;28;20477;-71
2022/01/13 07:49:26;;;;;;;46.20;16.27;;;3.50;99.90;;;;;;5092155;28;20073;-73
2022/01/13 07:51:52;;;;;;;46.20;17.30;;;3.40;99.90;;;;;;5093275;28;20464;-73
2022/01/13 07:54:18;;;;;;;49.10;16.00;;;3.50;99.90;;;;;;5093617;28;20031;-73
2022/01/13 07:56:43;;;;;;;53.60;16.57;;;3.50;99.90;;;;;;5106158;28;20107;-73
2022/01/13 07:59:09;;;;;;;40.33;16.40;;;3.50;99.90;;;;;;5113252;28;20024;-73
2022/01/13 08:01:35;;;;;;;50.27;16.10;;;3.40;99.90;;;;;;5095241;28;20023;-71
2022/01/13 08:04:00;;;;;;;38.20;14.57;;;3.50;99.90;;;;;;5112002;28;20055;-73
2022/01/13 08:06:26;;;;;;;42.37;15.83;;;3.50;99.90;;;;;;5112379;28;20039;-73
2022/01/13 08:08:52;;;;;;;45.40;16.33;;;3.50;99.90;;;;;;5112282;28;20039;-71
2022/01/13 08:11:18;;;;;;;43.23;14.97;;;3.50;99.90;;;;;;5113530;28;20019;-71
2022/01/13 08:13:44;;;;;;;43.20;15.77;;;3.60;99.90;;;;;;5112996;28;20024;-71
2022/01/13 08:16:10;;;;;;;44.47;15.87;;;3.60;99.90;;;;;;5111262;28;20111;-73
2022/01/13 08:21:23;;;;;;;38.23;16.13;;;3.50;99.90;;;;;;5104020;28;20043;-73
2022/01/13 08:23:49;;;;;;;45.47;15.00;;;3.60;99.90;;;;;;5097624;28;20027;-73
2022/01/13 08:26:16;;;;;;;45.53;15.83;;;3.50;99.90;;;;;;5109352;28;20027;-73
2022/01/13 08:28:41;;;;;;;36.80;14.47;;;3.60;99.90;;;;;;5087197;28;20048;-73
2022/01/13 08:31:07;;;;;;;46.13;14.37;;;3.60;99.90;;;;;;5087551;28;20027;-73
2022/01/13 08:33:33;;;;;;;36.57;13.83;;;3.60;99.90;;;;;;5114185;28;20114;-73
2022/01/13 08:35:58;;;;;;;41.10;15.63;;;3.60;99.90;;;;;;5104092;28;20042;-73
2022/01/13 08:38:25;;;;;;;38.13;15.70;;;3.50;99.90;;;;;;5114835;28;20050;-73
2022/01/13 08:40:59;;;;;;;38.57;13.67;;;3.60;99.90;;;;;;5116272;28;20107;-73
2022/01/13 08:43:26;;;;;;;45.33;16.83;;;3.60;99.90;;;;;;5110757;28;20495;-73
2022/01/13 08:45:52;;;;;;;39.50;15.70;;;3.60;99.90;;;;;;5116343;27;20030;-73
2022/01/13 08:48:18;;;;;;;40.97;15.77;;;3.60;99.90;;;;;;5115090;28;20046;-73
2022/01/13 08:50:44;;;;;;;37.90;15.30;;;3.60;99.90;;;;;;5115523;28;20023;-73
2022/01/13 08:53:10;;;;;;;34.90;13.60;;;3.60;99.90;;;;;;5116955;28;20475;-74
2022/01/13 08:55:36;;;;;;;40.43;14.80;;;3.60;99.90;;;;;;5116886;28;20026;-73
2022/01/13 08:58:01;;;;;;;38.87;14.67;;;3.70;99.90;;;;;;5115829;28;20110;-74
2022/01/13 09:00:27;;;;;;;33.20;14.20;;;3.70;99.90;;;;;;5081023;28;20027;-74
2022/01/13 09:02:53;;;;;;;35.57;13.07;;;3.70;99.90;;;;;;5115704;28;20071;-74
2022/01/13 09:05:20;;;;;;;36.83;13.30;;;3.70;99.90;;;;;;5116679;28;20482;-73
2022/01/13 09:07:46;;;;;;;48.63;14.17;;;3.70;99.90;;;;;;5114829;28;20576;-70
2022/01/13 09:10:13;;;;;;;40.63;12.83;;;3.70;99.90;;;;;;5098130;28;20032;-73
2022/01/13 09:12:40;;;;;;;38.83;12.70;;;3.70;99.90;;;;;;5115135;28;20020;-71
2022/01/13 09:15:44;;;;;;;39.40;13.23;;;3.70;99.90;;;;;;5114919;28;20055;-71
2022/01/13 09:18:07;;;;;;;37.95;13.45;;;3.70;99.90;;;;;;5111620;28;20032;-71
2022/01/13 09:20:33;;;;;;;33.17;13.90;;;3.70;99.90;;;;;;5106677;28;20052;-71
2022/01/13 09:22:59;;;;;;;38.07;13.40;;;3.60;99.90;;;;;;5094148;28;20298;-72
2022/01/13 09:25:25;;;;;;;31.87;13.70;;;3.70;99.90;;;;;;5109551;28;20036;-71
2022/01/13 09:27:51;;;;;;;36.23;13.43;;;3.70;99.90;;;;;;5114612;28;20020;-72
2022/01/13 09:30:16;;;;;;;40.07;13.43;;;3.70;99.90;;;;;;5115745;28;20084;-71
2022/01/13 09:32:42;;;;;;;29.53;13.07;;;3.70;99.90;;;;;;5114308;28;20463;-72
2022/01/13 09:35:08;;;;;;;32.30;13.63;;;3.70;99.90;;;;;;5115375;27;20027;-72
2022/01/13 09:37:35;;;;;;;32.73;13.13;;;3.70;99.90;;;;;;5115454;28;20035;-71
2022/01/13 09:40:02;;;;;;;31.03;13.73;;;3.70;99.90;;;;;;5115112;28;20384;-71
2022/01/13 09:42:32;;;;;;;32.73;12.97;;;3.70;99.90;;;;;;5115804;28;20030;-72
2022/01/13 09:45:00;;;;;;;32.87;13.30;;;3.70;99.90;;;;;;5115872;28;20019;-72
2022/01/13 09:47:26;;;;;;;29.93;13.40;;;3.70;99.90;;;;;;5115510;28;20020;-71
2022/01/13 09:49:51;;;;;;;34.73;13.03;;;3.70;99.90;;;;;;5115888;28;20047;-72
2022/01/13 09:52:20;;;;;;;38.87;14.33;;;3.80;99.90;;;;;;5113766;28;20026;-72
2022/01/13 09:54:46;;;;;;;40.40;13.83;;;3.80;99.90;;;;;;5115591;28;20027;-72
2022/01/13 09:57:11;;;;;;;29.30;12.60;;;3.80;99.90;;;;;;5114052;28;20042;-72
2022/01/13 09:59:37;;;;;;;33.37;13.33;;;3.90;99.90;;;;;;5114391;28;20093;-71
2022/01/13 10:02:03;;;;;;;35.00;12.83;;;3.90;99.90;;;;;;5097123;28;20072;-72
2022/01/13 10:04:49;;;;;;;32.47;12.83;;;3.90;99.90;;;;;;5115190;28;20380;-73
2022/01/13 10:07:34;;;;;;;29.03;11.97;;;4.00;99.90;;;;;;5114087;28;20032;-72
2022/01/13 10:10:07;;;;;;;35.95;13.20;;;4.00;99.90;;;;;;5114385;28;20148;-72
2022/01/13 10:12:38;;;;;;;30.53;13.20;;;4.00;99.90;;;;;;5115341;28;20011;-71
2022/01/13 10:17:58;;;;;;;30.73;12.80;;;4.10;99.90;;;;;;5115260;28;20035;-71
2022/01/13 10:20:24;;;;;;;29.33;12.83;;;4.00;99.90;;;;;;5114193;28;20367;-71
2022/01/13 10:22:51;;;;;;;24.50;11.33;;;4.10;99.90;;;;;;5113437;28;20024;-72
2022/01/13 10:25:25;;;;;;;30.67;12.90;;;4.10;99.90;;;;;;5096913;28;20470;-71
2022/01/13 10:27:51;;;;;;;34.23;13.43;;;4.10;99.90;;;;;;5114136;28;20038;-72
2022/01/13 10:30:18;;;;;;;37.10;13.97;;;4.10;99.90;;;;;;5113374;28;20024;-72
2022/01/13 10:32:45;;;;;;;31.90;14.07;;;4.10;99.90;;;;;;5114812;28;20020;-72
2022/01/13 10:35:13;;;;;;;35.00;13.33;;;4.20;99.90;;;;;;5114697;28;20020;-72
2022/01/13 10:37:48;;;;;;;29.83;13.10;;;4.20;99.90;;;;;;5113327;28;20008;-72
2022/01/13 10:40:27;;;;;;;30.17;13.30;;;4.10;99.90;;;;;;5114897;28;20035;-72
2022/01/13 10:45:28;;;;;;;35.13;14.97;;;4.20;99.90;;;;;;5114813;28;20030;-72
2022/01/13 10:48:03;;;;;;;38.63;16.30;;;4.10;99.90;;;;;;5113247;28;20042;-72
2022/01/13 10:50:38;;;;;;;31.97;13.93;;;4.20;99.90;;;;;;5114206;28;20016;-72
2022/01/13 10:53:14;;;;;;;31.50;14.07;;;4.10;99.90;;;;;;5113926;28;20458;-71
2022/01/13 10:55:42;;;;;;;35.53;13.60;;;4.10;99.90;;;;;;5114552;28;20142;-72
2022/01/13 10:58:08;;;;;;;32.37;15.13;;;4.20;99.90;;;;;;5114245;28;20023;-72
2022/01/13 11:00:35;;;;;;;35.97;15.57;;;4.20;99.90;;;;;;5114422;28;20024;-72
2022/01/13 11:03:06;;;;;;;33.53;13.87;;;4.20;99.90;;;;;;5112687;28;20556;-72
2022/01/13 11:05:35;;;;;;;33.63;14.80;;;4.20;99.90;;;;;;5113704;28;20027;-72
2022/01/13 11:08:06;;;;;;;35.83;15.47;;;4.20;99.90;;;;;;5112961;28;20023;-72
2022/01/13 11:10:32;;;;;;;39.47;16.40;;;4.20;99.90;;;;;;5114243;28;20108;-72
2022/01/13 11:13:01;;;;;;;42.03;13.63;;;4.20;99.90;;;;;;5112781;28;20468;-72
2022/01/13 11:15:28;;;;;;;45.63;16.43;;;4.20;99.90;;;;;;5114116;28;20020;-72
2022/01/13 11:17:55;;;;;;;39.83;15.30;;;4.20;99.90;;;;;;5113635;28;20098;-72
2022/01/13 11:20:22;;;;;;;37.37;14.60;;;4.20;99.90;;;;;;5113774;28;20089;-72
2022/01/13 11:22:50;;;;;;;40.37;16.00;;;4.20;99.90;;;;;;5113400;28;20028;-72
2022/01/13 11:25:19;;;;;;;36.97;15.10;;;4.30;99.90;;;;;;5113090;28;20024;-72
2022/01/13 11:27:46;;;;;;;36.13;15.30;;;4.20;99.90;;;;;;5114103;28;20070;-71
2022/01/13 11:30:18;;;;;;;38.93;16.90;;;4.20;99.90;;;;;;5105035;28;20034;-72
2022/01/13 11:32:46;;;;;;;44.07;14.50;;;4.20;99.90;;;;;;5111589;28;20128;-72
2022/01/13 11:35:15;;;;;;;39.43;16.17;;;4.30;99.90;;;;;;5112573;28;20016;-72
2022/01/13 11:37:42;;;;;;;36.33;17.90;;;4.20;99.90;;;;;;5111489;28;20011;-75
2022/01/13 11:40:27;;;;;;;43.40;16.40;;;4.20;99.90;;;;;;5113017;28;20095;-75
2022/01/13 11:42:58;;;;;;;37.63;16.43;;;4.20;99.90;;;;;;5111204;28;20084;-75
2022/01/13 11:45:25;;;;;;;41.30;16.50;;;4.30;99.90;;;;;;5113299;28;20041;-75
2022/01/13 11:48:17;;;;;;;44.03;16.10;;;4.30;99.90;;;;;;5114479;28;20023;-74
2022/01/13 11:50:49;;;;;;;40.63;16.43;;;4.30;99.90;;;;;;5113784;28;20016;-74
2022/01/13 11:53:26;;;;;;;37.43;15.37;;;4.30;99.90;;;;;;5112487;28;20111;-75
2022/01/13 11:55:56;;;;;;;35.37;15.97;;;4.30;99.90;;;;;;5114270;28;20110;-75
2022/01/13 11:58:41;;;;;;;37.43;16.63;;;4.30;99.90;;;;;;5112967;28;20038;-75
2022/01/13 12:01:28;;;;;;;43.40;16.63;;;4.40;99.90;;;;;;5113440;28;20023;-75
2022/01/13 12:03:59;;;;;;;36.53;15.40;;;4.30;99.90;;;;;;5113389;28;20059;-76
2022/01/13 12:06:43;;;;;;;37.57;16.90;;;4.30;99.90;;;;;;5115294;28;20023;-75
2022/01/13 12:09:32;;;;;;;35.07;15.53;;;4.30;99.90;;;;;;5115164;28;20050;-75
2022/01/13 12:11:59;;;;;;;35.53;13.87;;;4.30;99.90;;;;;;5114709;28;20544;-75
2022/01/13 12:14:25;;;;;;;45.47;17.40;;;4.30;99.90;;;;;;5115593;28;20046;-76
2022/01/13 12:17:06;;;;;;;39.53;17.00;;;4.30;99.90;;;;;;5116833;28;20399;-75
2022/01/13 12:19:39;;;;;;;40.40;16.23;;;4.20;99.90;;;;;;5115287;28;20020;-75
2022/01/13 12:22:17;;;;;;;30.90;14.02;;;4.20;99.90;;;;;;5115665;28;20028;-76
2022/01/13 12:24:45;;;;;;;36.37;14.43;;;4.20;99.90;;;;;;5115494;28;20020;-75
2022/01/13 12:27:11;;;;;;;37.40;16.90;;;4.20;99.90;;;;;;5115742;28;20039;-76
2022/01/13 12:29:44;;;;;;;35.77;15.47;;;4.20;99.90;;;;;;5115739;28;20016;-76
2022/01/13 12:32:10;;;;;;;31.87;14.70;;;4.20;99.90;;;;;;5116898;28;20016;-75
2022/01/13 12:34:39;;;;;;;36.53;13.70;;;4.20;99.90;;;;;;5116797;28;20108;-75
2022/01/13 12:37:13;;;;;;;39.30;15.47;;;4.20;99.90;;;;;;5116471;28;20051;-75
2022/01/13 12:39:45;;;;;;;38.27;15.57;;;4.20;99.90;;;;;;5116452;28;20028;-77
2022/01/13 12:42:21;;;;;;;41.47;14.67;;;4.20;99.90;;;;;;5116785;28;20027;-75
2022/01/13 12:47:32;;;;;;;41.03;15.07;;;4.20;99.90;;;;;;5116407;28;20490;-75
2022/01/13 12:49:57;;;;;;;34.90;15.97;;;4.20;99.90;;;;;;5115505;28;20027;-75
2022/01/13 12:52:26;;;;;;;33.33;14.63;;;4.20;99.90;;;;;;5116382;28;20140;-75
2022/01/13 12:54:54;;;;;;;34.50;14.50;;;4.20;99.90;;;;;;5116395;28;20035;-74
2022/01/13 12:57:22;;;;;;;38.40;15.67;;;4.20;99.90;;;;;;5116319;28;20476;-76
2022/01/13 12:59:54;;;;;;;44.40;16.60;;;4.20;99.90;;;;;;5113886;28;20031;-75
2022/01/13 13:02:19;;;;;;;54.43;16.13;;;4.20;99.90;;;;;;5095380;28;20047;-75
2022/01/13 13:04:46;;;;;;;46.00;17.13;;;4.20;99.90;;;;;;5094474;28;20467;-75
2022/01/13 13:07:12;;;;;;;35.40;15.57;;;4.20;99.90;;;;;;5077887;28;20032;-75
2022/01/13 13:09:38;;;;;;;41.40;14.90;;;4.20;99.90;;;;;;5077378;28;20035;-78
2022/01/13 13:12:08;;;;;;;36.60;15.20;;;4.20;99.90;;;;;;5093095;28;20024;-73
2022/01/13 13:14:41;;;;;;;49.13;14.13;;;4.30;99.90;;;;;;5093668;28;20380;-75